createdAt,value
2023-02-26T00:00:20.751Z,62.67
2023-02-26T00:02:48.684Z,62.64
2023-02-26T00:05:16.496Z,63.86
2023-02-26T00:07:43.408Z,63.82
2023-02-26T00:10:13.726Z,63.50
2023-02-26T00:12:40.739Z,63.70
2023-02-26T00:15:08.403Z,64.25
2023-02-26T00:17:37.966Z,63.95
2023-02-26T00:20:06.577Z,64.55
2023-02-26T00:22:33.505Z,63.72
2023-02-26T00:25:00.109Z,63.65
2023-02-26T00:27:26.744Z,64.14
2023-02-26T00:29:54.296Z,64.12
2023-02-26T00:32:21.209Z,63.50
2023-02-26T00:34:48.567Z,63.66
2023-02-26T00:37:38.738Z,63.94
2023-02-26T00:40:42.452Z,63.90
2023-02-26T00:43:15.942Z,64.05
2023-02-26T00:46:19.132Z,64.49
2023-02-26T00:49:07.185Z,63.96
2023-02-26T00:51:48.110Z,64.29
2023-02-26T00:54:24.199Z,65.08
2023-02-26T00:56:52.723Z,64.16
2023-02-26T00:59:20.414Z,64.32
2023-02-26T01:01:47.577Z,64.43
2023-02-26T01:04:16.349Z,64.90
2023-02-26T01:06:52.526Z,64.08
2023-02-26T01:09:32.021Z,64.43
2023-02-26T01:12:01.673Z,64.19
2023-02-26T01:14:30.013Z,63.74
2023-02-26T01:17:21.240Z,64.15
2023-02-26T01:20:22.149Z,63.92
2023-02-26T01:23:03.956Z,64.63
2023-02-26T01:25:44.649Z,63.59
2023-02-26T01:28:11.461Z,64.35
2023-02-26T01:30:38.578Z,64.90
2023-02-26T01:33:25.717Z,64.64
2023-02-26T01:35:52.236Z,65.39
2023-02-26T01:38:37.160Z,64.51
2023-02-26T01:41:27.030Z,63.91
2023-02-26T01:44:08.673Z,63.56
2023-02-26T01:46:49.417Z,64.10
2023-02-26T01:49:19.290Z,64.37
2023-02-26T01:51:50.579Z,64.17
2023-02-26T01:54:21.873Z,63.88
2023-02-26T01:56:53.171Z,63.72
2023-02-26T01:59:24.785Z,64.08
2023-02-26T02:01:56.955Z,63.76
2023-02-26T02:04:24.716Z,63.11
2023-02-26T02:06:51.929Z,63.51
2023-02-26T02:09:18.657Z,63.41
2023-02-26T02:12:10.188Z,63.88
2023-02-26T02:14:46.731Z,63.83
2023-02-26T02:17:34.969Z,64.34
2023-02-26T02:20:23.383Z,63.62
2023-02-26T02:22:52.984Z,62.52
2023-02-26T02:25:48.843Z,62.54
2023-02-26T02:28:33.908Z,62.98
2023-02-26T02:31:09.764Z,63.59
2023-02-26T02:33:49.800Z,62.96
2023-02-26T02:36:25.340Z,63.15
2023-02-26T02:38:57.710Z,63.20
2023-02-26T02:41:48.764Z,63.35
2023-02-26T02:44:19.860Z,63.64
2023-02-26T02:46:48.969Z,63.60
2023-02-26T02:49:25.432Z,63.50
2023-02-26T02:52:00.683Z,63.04
2023-02-26T02:54:39.005Z,64.02
2023-02-26T02:57:16.194Z,63.51
2023-02-26T02:59:46.295Z,64.07
2023-02-26T03:02:25.679Z,63.67
2023-02-26T03:04:52.702Z,63.14
2023-02-26T03:07:19.356Z,63.04
2023-02-26T03:09:46.805Z,62.66
2023-02-26T03:12:13.442Z,64.04
2023-02-26T03:14:40.716Z,63.85
2023-02-26T03:17:25.864Z,63.87
2023-02-26T03:20:05.047Z,64.10
2023-02-26T03:22:55.928Z,64.26
2023-02-26T03:25:49.492Z,64.53
2023-02-26T03:28:15.984Z,64.99
2023-02-26T03:30:50.784Z,64.14
2023-02-26T03:33:21.753Z,64.20
2023-02-26T03:36:10.260Z,64.46
2023-02-26T03:38:43.971Z,64.66
2023-02-26T03:41:17.199Z,64.64
2023-02-26T03:43:54.166Z,65.00
2023-02-26T03:46:34.392Z,64.69
2023-02-26T03:49:07.786Z,64.42
2023-02-26T03:51:37.198Z,64.87
2023-02-26T03:54:10.044Z,64.83
2023-02-26T03:56:46.094Z,65.17
2023-02-26T03:59:14.868Z,66.45
2023-02-26T04:02:22.490Z,65.99
2023-02-26T04:05:11.364Z,66.28
2023-02-26T04:07:39.560Z,66.49
2023-02-26T04:10:08.500Z,66.83
2023-02-26T04:12:35.148Z,67.10
2023-02-26T04:15:02.360Z,67.66
2023-02-26T04:17:30.419Z,67.97
2023-02-26T04:19:57.098Z,68.51
2023-02-26T04:22:23.873Z,68.01
2023-02-26T04:24:50.449Z,68.12
2023-02-26T04:27:17.025Z,68.42
2023-02-26T04:29:43.621Z,68.03
2023-02-26T04:32:10.440Z,68.33
2023-02-26T04:34:37.124Z,68.26
2023-02-26T04:37:03.763Z,68.65
2023-02-26T04:39:30.300Z,68.34
2023-02-26T04:41:56.857Z,68.35
2023-02-26T04:44:23.934Z,68.43
2023-02-26T04:46:50.505Z,68.87
2023-02-26T04:49:17.247Z,69.36
2023-02-26T04:51:43.803Z,69.26
2023-02-26T04:54:10.384Z,69.43
2023-02-26T04:56:36.922Z,69.45
2023-02-26T04:59:03.529Z,69.69
2023-02-26T05:01:30.661Z,69.70
2023-02-26T05:03:57.313Z,69.45
2023-02-26T05:06:24.257Z,70.19
2023-02-26T05:08:50.989Z,69.84
2023-02-26T05:11:17.587Z,69.78
2023-02-26T05:13:44.186Z,70.34
2023-02-26T05:16:10.958Z,69.67
2023-02-26T05:18:37.563Z,69.72
2023-02-26T05:21:05.710Z,70.66
2023-02-26T05:23:32.558Z,70.72
2023-02-26T05:25:59.459Z,70.73
2023-02-26T05:28:26.960Z,69.61
2023-02-26T05:30:53.662Z,69.61
2023-02-26T05:33:20.333Z,69.85
2023-02-26T05:35:48.168Z,69.78
2023-02-26T05:38:15.104Z,70.19
2023-02-26T05:40:41.649Z,70.80
2023-02-26T05:43:08.788Z,70.39
2023-02-26T05:45:35.435Z,70.47
2023-02-26T05:48:02.389Z,70.36
2023-02-26T05:50:30.564Z,70.42
2023-02-26T05:52:57.401Z,70.03
2023-02-26T05:55:24.625Z,70.12
2023-02-26T05:57:51.209Z,69.93
2023-02-26T06:00:18.179Z,70.05
2023-02-26T06:02:44.759Z,70.18
2023-02-26T06:05:11.478Z,70.53
2023-02-26T06:07:38.259Z,70.88
2023-02-26T06:10:06.425Z,70.83
2023-02-26T06:12:33.008Z,71.21
2023-02-26T06:14:59.643Z,71.49
2023-02-26T06:17:27.169Z,71.83
2023-02-26T06:19:53.760Z,71.64
2023-02-26T06:22:22.654Z,71.92
2023-02-26T06:24:49.281Z,72.10
2023-02-26T06:27:15.960Z,72.57
2023-02-26T06:29:42.738Z,72.16
2023-02-26T06:32:09.424Z,72.21
2023-02-26T06:34:36.037Z,72.41
2023-02-26T06:37:02.733Z,72.55
2023-02-26T06:39:29.474Z,72.75
2023-02-26T06:41:56.028Z,72.42
2023-02-26T06:44:22.751Z,72.97
2023-02-26T06:46:49.404Z,72.93
2023-02-26T06:49:15.960Z,72.80
2023-02-26T06:51:42.586Z,71.75
2023-02-26T06:54:09.177Z,71.63
2023-02-26T06:56:35.720Z,72.00
2023-02-26T06:59:02.282Z,71.19
2023-02-26T07:01:28.947Z,70.96
2023-02-26T07:03:55.537Z,70.47
2023-02-26T07:06:27.796Z,70.58
2023-02-26T07:08:55.216Z,70.56
2023-02-26T07:11:21.860Z,71.03
2023-02-26T07:13:48.441Z,70.78
2023-02-26T07:16:15.058Z,70.47
2023-02-26T07:18:41.671Z,70.53
2023-02-26T07:21:08.302Z,70.57
2023-02-26T07:23:35.323Z,70.71
2023-02-26T07:26:02.374Z,70.92
2023-02-26T07:28:28.971Z,70.89
2023-02-26T07:30:56.500Z,71.52
2023-02-26T07:33:23.393Z,71.32
2023-02-26T07:35:49.987Z,71.21
2023-02-26T07:38:19.139Z,71.93
2023-02-26T07:40:46.765Z,70.98
2023-02-26T07:43:13.359Z,70.21
2023-02-26T07:45:39.934Z,70.20
2023-02-26T07:48:06.591Z,69.11
2023-02-26T07:50:33.662Z,69.35
2023-02-26T07:53:00.377Z,69.34
2023-02-26T07:55:27.828Z,68.99
2023-02-26T07:57:54.459Z,68.91
2023-02-26T08:00:21.548Z,68.45
2023-02-26T08:02:48.332Z,67.21
2023-02-26T08:05:14.899Z,66.63
2023-02-26T08:07:41.444Z,67.18
2023-02-26T08:10:08.682Z,65.12
2023-02-26T08:12:36.638Z,64.75
2023-02-26T08:15:04.436Z,64.85
2023-02-26T08:17:31.252Z,63.36
2023-02-26T08:19:57.852Z,64.05
2023-02-26T08:22:24.554Z,63.70
2023-02-26T08:24:51.196Z,63.19
2023-02-26T08:27:17.876Z,62.96
2023-02-26T08:29:46.314Z,63.35
2023-02-26T08:32:15.741Z,62.72
2023-02-26T08:34:42.473Z,62.12
2023-02-26T08:37:11.664Z,61.89
2023-02-26T08:39:39.050Z,61.97
2023-02-26T08:42:10.392Z,60.71
2023-02-26T08:44:37.237Z,61.04
2023-02-26T08:47:03.993Z,61.28
2023-02-26T08:49:31.032Z,61.40
2023-02-26T08:51:57.716Z,60.83
2023-02-26T08:54:24.401Z,59.48
2023-02-26T08:56:51.392Z,58.88
2023-02-26T08:59:18.145Z,60.29
2023-02-26T09:01:44.856Z,59.95
2023-02-26T09:04:11.425Z,59.69
2023-02-26T09:06:38.012Z,59.66
2023-02-26T09:09:04.740Z,58.61
2023-02-26T09:11:32.515Z,58.68
2023-02-26T09:13:59.617Z,58.51
2023-02-26T09:16:27.132Z,58.71
2023-02-26T09:18:53.933Z,58.49
2023-02-26T09:21:21.254Z,58.26
2023-02-26T09:23:47.988Z,57.56
2023-02-26T09:26:14.840Z,57.21
2023-02-26T09:28:41.482Z,57.16
2023-02-26T09:31:08.284Z,57.36
2023-02-26T09:33:35.189Z,57.47
2023-02-26T09:36:01.793Z,56.87
2023-02-26T09:38:28.459Z,56.58
2023-02-26T09:40:59.655Z,56.46
2023-02-26T09:43:54.232Z,56.62
2023-02-26T09:46:39.505Z,57.32
2023-02-26T09:49:20.139Z,56.42
2023-02-26T09:51:52.272Z,56.64
2023-02-26T09:54:23.483Z,55.77
2023-02-26T09:56:53.036Z,56.21
2023-02-26T09:59:19.698Z,55.91
2023-02-26T10:02:07.801Z,56.33
2023-02-26T10:04:51.047Z,55.90
2023-02-26T10:07:38.872Z,56.15
2023-02-26T10:10:12.415Z,54.86
2023-02-26T10:12:41.799Z,53.94
2023-02-26T10:15:29.192Z,54.61
2023-02-26T10:18:04.525Z,54.50
2023-02-26T10:20:54.095Z,52.94
2023-02-26T10:23:23.826Z,53.89
2023-02-26T10:26:04.038Z,53.52
2023-02-26T10:28:42.510Z,51.83
2023-02-26T10:31:13.883Z,51.08
2023-02-26T10:34:05.656Z,52.36
2023-02-26T10:36:58.837Z,51.39
2023-02-26T10:40:10.046Z,52.00
2023-02-26T10:42:50.992Z,51.01
2023-02-26T10:45:27.335Z,51.10
2023-02-26T10:48:08.852Z,50.25
2023-02-26T10:50:35.990Z,49.50
2023-02-26T10:53:03.145Z,49.69
2023-02-26T10:55:34.061Z,49.33
2023-02-26T10:58:05.584Z,49.63
2023-02-26T11:00:35.281Z,49.30
2023-02-26T11:03:05.380Z,46.46
2023-02-26T11:05:33.812Z,46.59
2023-02-26T11:08:10.861Z,46.30
2023-02-26T11:10:50.688Z,45.01
2023-02-26T11:13:17.313Z,45.41
2023-02-26T11:15:47.578Z,45.16
2023-02-26T11:18:19.208Z,45.46
2023-02-26T11:20:47.243Z,45.96
2023-02-26T11:23:18.665Z,45.36
2023-02-26T11:25:45.527Z,46.69
2023-02-26T11:28:51.200Z,46.32
2023-02-26T11:31:19.124Z,46.95
2023-02-26T11:33:50.813Z,46.68
2023-02-26T11:36:20.793Z,46.74
2023-02-26T11:38:54.951Z,46.62
2023-02-26T11:41:24.088Z,47.48
2023-02-26T11:44:01.621Z,47.72
2023-02-26T11:46:28.961Z,47.57
2023-02-26T11:48:58.205Z,47.65
2023-02-26T11:51:27.657Z,47.62
2023-02-26T11:54:02.879Z,47.29
2023-02-26T11:56:39.106Z,47.36
2023-02-26T11:59:16.605Z,47.02
2023-02-26T12:01:43.292Z,46.89
2023-02-26T12:04:13.509Z,46.79
2023-02-26T12:06:40.248Z,47.43
2023-02-26T12:09:12.538Z,47.39
2023-02-26T12:11:48.314Z,47.85
2023-02-26T12:14:20.915Z,46.85
2023-02-26T12:16:56.124Z,47.25
2023-02-26T12:19:49.441Z,46.38
2023-02-26T12:22:15.990Z,47.35
2023-02-26T12:25:36.948Z,47.83
2023-02-26T12:28:11.285Z,47.88
2023-02-26T12:30:59.049Z,48.36
2023-02-26T12:34:07.182Z,48.84
2023-02-26T12:36:47.613Z,48.55
2023-02-26T12:39:40.795Z,48.62
2023-02-26T12:42:55.454Z,48.65
2023-02-26T12:45:41.341Z,48.31
2023-02-26T12:48:13.858Z,48.59
2023-02-26T12:51:25.767Z,48.99
2023-02-26T12:53:58.315Z,48.40
2023-02-26T12:56:34.069Z,48.04
2023-02-26T12:59:25.447Z,48.85
2023-02-26T13:02:00.893Z,48.55
2023-02-26T13:04:36.466Z,48.49
2023-02-26T13:07:03.025Z,48.58
2023-02-26T13:10:07.120Z,47.80
2023-02-26T13:12:41.120Z,48.36
2023-02-26T13:15:25.358Z,47.14
2023-02-26T13:18:02.206Z,47.46
2023-02-26T13:20:29.745Z,48.04
2023-02-26T13:23:10.484Z,47.80
2023-02-26T13:25:48.746Z,47.48
2023-02-26T13:28:24.373Z,48.45
2023-02-26T13:30:56.045Z,48.01
2023-02-26T13:33:29.844Z,47.89
2023-02-26T13:35:57.583Z,48.31
2023-02-26T13:38:42.145Z,48.21
2023-02-26T13:41:42.509Z,48.75
2023-02-26T13:44:26.292Z,49.18
2023-02-26T13:47:16.985Z,49.08
2023-02-26T13:49:55.864Z,49.49
2023-02-26T13:52:31.719Z,49.72
2023-02-26T13:54:59.509Z,49.99
2023-02-26T13:57:36.062Z,50.29
2023-02-26T14:00:27.554Z,51.35
2023-02-26T14:03:10.577Z,51.09
2023-02-26T14:05:49.208Z,51.75
2023-02-26T14:08:22.515Z,51.50
2023-02-26T14:11:24.984Z,51.37
2023-02-26T14:14:12.428Z,52.10
2023-02-26T14:16:47.144Z,51.94
2023-02-26T14:19:13.614Z,51.73
2023-02-26T14:22:19.619Z,51.61
2023-02-26T14:24:54.253Z,52.12
2023-02-26T14:27:20.667Z,51.97
2023-02-26T14:29:56.292Z,51.64
2023-02-26T14:32:31.331Z,51.45
2023-02-26T14:35:20.487Z,51.68
2023-02-26T14:38:03.739Z,51.85
2023-02-26T14:40:36.716Z,51.58
2023-02-26T14:43:06.937Z,51.92
2023-02-26T14:45:39.330Z,52.27
2023-02-26T14:48:12.943Z,52.31
2023-02-26T14:50:54.458Z,52.71
2023-02-26T14:53:39.301Z,52.93
2023-02-26T14:56:31.734Z,53.04
2023-02-26T14:59:01.306Z,52.99
2023-02-26T15:01:48.128Z,53.59
2023-02-26T15:04:22.704Z,52.88
2023-02-26T15:07:21.188Z,52.93
2023-02-26T15:10:22.012Z,52.53
2023-02-26T15:13:32.770Z,52.36
2023-02-26T15:16:23.687Z,52.19
2023-02-26T15:18:56.273Z,52.60
2023-02-26T15:21:34.921Z,52.95
2023-02-26T15:24:02.413Z,52.90
2023-02-26T15:26:32.982Z,52.76
2023-02-26T15:29:04.749Z,52.57
2023-02-26T15:31:36.122Z,53.24
2023-02-26T15:34:04.006Z,53.11
2023-02-26T15:36:31.442Z,52.93
2023-02-26T15:39:01.704Z,52.56
2023-02-26T15:41:31.463Z,52.89
2023-02-26T15:44:08.256Z,52.96
2023-02-26T15:46:38.765Z,52.78
2023-02-26T15:49:16.907Z,53.04
2023-02-26T15:51:45.020Z,52.87
2023-02-26T15:54:19.697Z,53.11
2023-02-26T15:56:46.640Z,53.22
2023-02-26T15:59:33.005Z,53.26
2023-02-26T16:02:02.917Z,53.68
2023-02-26T16:04:29.600Z,53.66
2023-02-26T16:06:58.231Z,53.56
2023-02-26T16:09:40.186Z,54.15
2023-02-26T16:12:11.909Z,54.08
2023-02-26T16:14:46.392Z,54.22
2023-02-26T16:17:24.158Z,54.57
2023-02-26T16:19:51.920Z,53.57
2023-02-26T16:22:25.701Z,52.94
2023-02-26T16:24:58.777Z,52.97
2023-02-26T16:27:29.164Z,52.90
2023-02-26T16:29:58.460Z,53.03
2023-02-26T16:32:28.372Z,53.48
2023-02-26T16:34:57.737Z,53.38
2023-02-26T16:37:31.220Z,53.60
2023-02-26T16:40:12.669Z,53.48
2023-02-26T16:42:51.883Z,53.25
2023-02-26T16:45:36.642Z,53.42
2023-02-26T16:48:26.149Z,53.41
2023-02-26T16:51:08.619Z,53.61
2023-02-26T16:54:04.892Z,53.83
2023-02-26T16:56:35.478Z,53.39
2023-02-26T16:59:22.394Z,52.99
2023-02-26T17:01:53.526Z,53.51
2023-02-26T17:04:24.326Z,52.98
2023-02-26T17:06:52.518Z,53.45
2023-02-26T17:09:26.914Z,53.61
2023-02-26T17:12:12.639Z,53.67
2023-02-26T17:14:48.047Z,53.70
2023-02-26T17:17:14.764Z,53.37
2023-02-26T17:19:41.340Z,53.37
2023-02-26T17:22:13.847Z,53.99
2023-02-26T17:24:48.465Z,53.89
2023-02-26T17:27:22.213Z,54.07
2023-02-26T17:29:51.045Z,54.28
2023-02-26T17:32:31.315Z,54.29
2023-02-26T17:34:58.857Z,54.35
2023-02-26T17:37:31.206Z,54.94
2023-02-26T17:39:59.563Z,55.18
2023-02-26T17:42:26.594Z,55.35
2023-02-26T17:44:55.151Z,55.21
2023-02-26T17:47:24.085Z,55.43
2023-02-26T17:49:50.657Z,55.39
2023-02-26T17:52:17.753Z,55.70
2023-02-26T17:54:44.939Z,55.86
2023-02-26T17:57:18.598Z,56.23
2023-02-26T17:59:45.509Z,56.18
2023-02-26T18:02:23.224Z,56.84
2023-02-26T18:04:49.835Z,56.58
2023-02-26T18:07:17.661Z,56.34
2023-02-26T18:09:46.167Z,56.82
2023-02-26T18:12:18.120Z,57.04
2023-02-26T18:14:44.855Z,57.23
2023-02-26T18:17:14.721Z,57.74
2023-02-26T18:19:42.744Z,57.34
2023-02-26T18:22:17.496Z,57.32
2023-02-26T18:24:43.974Z,57.63
2023-02-26T18:27:15.572Z,58.02
2023-02-26T18:29:42.782Z,58.01
2023-02-26T18:32:13.448Z,57.65
2023-02-26T18:34:40.157Z,57.83
2023-02-26T18:37:11.152Z,58.00
2023-02-26T18:39:38.175Z,58.22
2023-02-26T18:42:05.151Z,58.65
2023-02-26T18:44:33.202Z,57.91
2023-02-26T18:47:00.500Z,58.24
2023-02-26T18:49:27.724Z,58.23
2023-02-26T18:51:54.683Z,58.25
2023-02-26T18:54:21.235Z,58.28
2023-02-26T18:56:47.800Z,58.42
2023-02-26T18:59:14.387Z,58.73
2023-02-26T19:01:41.445Z,58.75
2023-02-26T19:04:08.120Z,58.72
2023-02-26T19:06:34.687Z,58.99
2023-02-26T19:09:02.786Z,59.10
2023-02-26T19:11:29.682Z,59.24
2023-02-26T19:13:56.630Z,58.52
2023-02-26T19:16:23.707Z,59.24
2023-02-26T19:18:51.023Z,59.38
2023-02-26T19:21:18.721Z,58.67
2023-02-26T19:23:45.468Z,58.60
2023-02-26T19:26:12.036Z,58.43
2023-02-26T19:28:38.643Z,58.70
2023-02-26T19:31:06.701Z,58.93
2023-02-26T19:33:33.457Z,58.96
2023-02-26T19:36:00.255Z,59.24
2023-02-26T19:38:26.880Z,59.09
2023-02-26T19:40:53.458Z,59.46
2023-02-26T19:43:23.346Z,59.66
2023-02-26T19:45:50.056Z,60.08
2023-02-26T19:48:16.805Z,60.23
2023-02-26T19:50:43.666Z,59.76
2023-02-26T19:53:10.421Z,59.98
2023-02-26T19:55:37.019Z,59.77
2023-02-26T19:58:03.658Z,59.88
2023-02-26T20:00:30.315Z,59.94
2023-02-26T20:02:56.911Z,59.51
2023-02-26T20:05:23.459Z,59.85
2023-02-26T20:07:50.015Z,59.66
2023-02-26T20:10:16.975Z,59.75
2023-02-26T20:12:45.353Z,59.78
2023-02-26T20:15:12.798Z,59.76
2023-02-26T20:17:39.476Z,60.54
2023-02-26T20:20:07.015Z,60.07
2023-02-26T20:22:33.657Z,60.67
2023-02-26T20:25:00.198Z,60.20
2023-02-26T20:27:26.812Z,59.69
2023-02-26T20:29:53.392Z,58.44
2023-02-26T20:32:20.459Z,58.31
2023-02-26T20:34:47.245Z,58.52
2023-02-26T20:37:13.847Z,58.60
2023-02-26T20:39:40.451Z,58.09
2023-02-26T20:42:07.043Z,57.56
2023-02-26T20:44:33.668Z,56.80
2023-02-26T20:47:02.438Z,56.87
2023-02-26T20:49:30.306Z,57.04
2023-02-26T20:51:57.397Z,57.04
2023-02-26T20:54:24.087Z,56.74
2023-02-26T20:56:51.128Z,56.27
2023-02-26T20:59:18.551Z,56.37
2023-02-26T21:01:46.474Z,56.80
2023-02-26T21:04:13.422Z,57.12
2023-02-26T21:06:40.278Z,57.41
2023-02-26T21:09:08.688Z,56.33
2023-02-26T21:11:36.925Z,56.38
2023-02-26T21:14:05.244Z,55.96
2023-02-26T21:16:32.108Z,54.51
2023-02-26T21:19:00.402Z,53.88
2023-02-26T21:21:27.281Z,52.56
2023-02-26T21:23:54.166Z,52.50
2023-02-26T21:26:21.844Z,52.40
2023-02-26T21:28:48.684Z,52.05
2023-02-26T21:31:17.207Z,51.18
2023-02-26T21:33:44.406Z,51.08
2023-02-26T21:36:11.601Z,50.98
2023-02-26T21:38:38.307Z,50.67
2023-02-26T21:41:05.102Z,51.05
2023-02-26T21:43:31.693Z,51.15
2023-02-26T21:45:58.401Z,51.67
2023-02-26T21:48:24.993Z,50.68
2023-02-26T21:50:52.131Z,49.84
2023-02-26T21:53:18.970Z,50.43
2023-02-26T21:55:45.547Z,49.55
2023-02-26T21:58:13.704Z,50.04
2023-02-26T22:00:40.306Z,49.99
2023-02-26T22:03:06.860Z,49.76
2023-02-26T22:05:33.490Z,49.69
2023-02-26T22:08:00.111Z,49.65
2023-02-26T22:10:29.596Z,49.47
2023-02-26T22:12:56.357Z,48.76
2023-02-26T22:15:22.927Z,48.78
2023-02-26T22:17:49.500Z,49.11
2023-02-26T22:20:16.258Z,48.74
2023-02-26T22:22:42.972Z,49.37
2023-02-26T22:25:11.944Z,49.54
2023-02-26T22:27:39.043Z,49.16
2023-02-26T22:30:07.602Z,49.02
2023-02-26T22:32:35.730Z,49.70
2023-02-26T22:35:03.308Z,49.67
2023-02-26T22:37:30.079Z,49.74
2023-02-26T22:39:56.768Z,49.73
2023-02-26T22:42:23.448Z,49.40
2023-02-26T22:44:50.036Z,49.40
2023-02-26T22:47:16.702Z,49.50
2023-02-26T22:49:43.320Z,49.52
2023-02-26T22:52:10.858Z,50.00
2023-02-26T22:54:38.997Z,49.83
2023-02-26T22:57:06.270Z,49.61
2023-02-26T22:59:32.844Z,49.97
2023-02-26T23:01:59.434Z,50.21
2023-02-26T23:04:26.070Z,50.79
2023-02-26T23:06:52.922Z,49.98
2023-02-26T23:09:19.620Z,50.78
2023-02-26T23:11:46.198Z,50.78
2023-02-26T23:14:12.913Z,50.66
2023-02-26T23:16:39.901Z,51.08
2023-02-26T23:19:06.629Z,51.33
2023-02-26T23:21:33.273Z,51.02
2023-02-26T23:23:59.931Z,51.12
2023-02-26T23:26:26.527Z,51.28
2023-02-26T23:28:53.218Z,51.34
2023-02-26T23:31:20.014Z,51.35
2023-02-26T23:33:46.729Z,51.33
2023-02-26T23:36:13.352Z,51.69
2023-02-26T23:38:39.919Z,52.28
2023-02-26T23:41:06.504Z,51.74
2023-02-26T23:43:33.377Z,52.06
2023-02-26T23:46:00.019Z,51.60
2023-02-26T23:48:27.533Z,52.24
2023-02-26T23:50:55.936Z,51.73
2023-02-26T23:53:22.619Z,51.98
2023-02-26T23:55:52.496Z,51.99
2023-02-26T23:58:20.543Z,51.77
